Brandy Bar — WDF7323 — position and weather

sailwx.info

Track history (hours):
 
Tides and Currents Weather Stations Pressure Air Temp Water Temp Dewpoint Dewpoint Depression Visibility Wind Speed Wind Dir Waves Ship Positions

Brandy Bar

Owner: Brandy Bar, Tiburon, CA. More information available from US FCC via Universal Licensing System and Coast Guard Vessel Documentation Center.

Last reported at 2017-May-09 20:23 UTC. Time now 2017-May-25 03:08 UTC.
Position N 38°02' W 121°51'.
Warning: this ship's position is 15 days out of date.

Type: Towing. MMSI: 367483310.

Date/timePositionNaut miles runAvg speedWind from/ knotsBaromVisibWave heightAir tempDewpointWater temp
2017-May-09 20:23N 38°02' W 121°51'0 0.0
2017-May-09 19:58N 38°02' W 121°51'0 0.1
2017-May-09 18:55N 38°02' W 121°51'2 3.6
2017-May-09 18:28N 38°03' W 121°50'0 0.3
2017-May-09 17:57N 38°03' W 121°50'0 0.3
2017-May-09 17:30N 38°03' W 121°50'0 0.0
2017-May-09 16:56N 38°03' W 121°50'0 0.3
2017-May-09 16:29N 38°03' W 121°50'  
2017-May-02 00:52N 38°03' W 121°53'7 6.2
2017-May-01 23:44N 38°04' W 122°02'3 6.2
2017-May-01 23:16N 38°03' W 122°06'2 6.2
2017-May-01 23:00N 38°02' W 122°07'3 5.6
2017-May-01 22:30N 38°03' W 122°11'3 5.7
2017-May-01 22:00N 38°04' W 122°14'2 2.6
2017-May-01 21:12N 38°06' W 122°16'0 0.3
2017-May-01 20:37N 38°06' W 122°16'0 0.2
2017-May-01 20:23N 38°06' W 122°16'3 6.8
2017-May-01 20:00N 38°04' W 122°14'18 0.4
2017-Apr-30 00:27N 38°02' W 121°51'810.2
2017-Apr-29 23:37N 38°04' W 122°02'310.2
2017-Apr-29 23:21N 38°03' W 122°05'410.2
2017-Apr-29 23:00N 38°02' W 122°10'510.6
2017-Apr-29 22:30N 38°03' W 122°16'5 9.8
2017-Apr-29 22:00N 38°01' W 122°22'510.0
2017-Apr-29 21:30N 37°57' W 122°26'510.5
2017-Apr-29 21:00N 37°52' W 122°25'4 7.6
2017-Apr-29 20:30N 37°49' W 122°25'  
Track history (hours):
 
Tides and Currents Weather Stations Pressure Air Temp Water Temp Dewpoint Dewpoint Depression Visibility Wind Speed Wind Dir Waves Ship Positions

Brandy Bar

Owner: Brandy Bar, Tiburon, CA. More information available from US FCC via Universal Licensing System and Coast Guard Vessel Documentation Center.

Last reported at 2017-May-09 20:23 UTC. Time now 2017-May-25 03:08 UTC.
Position N 38°02' W 121°51'.
Warning: this ship's position is 15 days out of date.

Type: Towing. MMSI: 367483310.

Date/timePositionNaut miles runAvg speedWind from/ knotsBaromVisibWave heightAir tempDewpointWater temp
2017-May-09 20:23N 38°02' W 121°51'0 0.0
2017-May-09 19:58N 38°02' W 121°51'0 0.1
2017-May-09 18:55N 38°02' W 121°51'2 3.6
2017-May-09 18:28N 38°03' W 121°50'0 0.3
2017-May-09 17:57N 38°03' W 121°50'0 0.3
2017-May-09 17:30N 38°03' W 121°50'0 0.0
2017-May-09 16:56N 38°03' W 121°50'0 0.3
2017-May-09 16:29N 38°03' W 121°50'  
2017-May-02 00:52N 38°03' W 121°53'7 6.2
2017-May-01 23:44N 38°04' W 122°02'3 6.2
2017-May-01 23:16N 38°03' W 122°06'2 6.2
2017-May-01 23:00N 38°02' W 122°07'3 5.6
2017-May-01 22:30N 38°03' W 122°11'3 5.7
2017-May-01 22:00N 38°04' W 122°14'2 2.6
2017-May-01 21:12N 38°06' W 122°16'0 0.3
2017-May-01 20:37N 38°06' W 122°16'0 0.2
2017-May-01 20:23N 38°06' W 122°16'3 6.8
2017-May-01 20:00N 38°04' W 122°14'18 0.4
2017-Apr-30 00:27N 38°02' W 121°51'810.2
2017-Apr-29 23:37N 38°04' W 122°02'310.2
2017-Apr-29 23:21N 38°03' W 122°05'410.2
2017-Apr-29 23:00N 38°02' W 122°10'510.6
2017-Apr-29 22:30N 38°03' W 122°16'5 9.8
2017-Apr-29 22:00N 38°01' W 122°22'510.0
2017-Apr-29 21:30N 37°57' W 122°26'510.5
2017-Apr-29 21:00N 37°52' W 122°25'4 7.6
2017-Apr-29 20:30N 37°49' W 122°25'  

Dump ship's entire track history